createdAt,value
2022-11-30T00:01:36.812Z,4.75
2022-11-30T00:04:05.225Z,4.75
2022-11-30T00:06:33.548Z,3.25
2022-11-30T00:09:01.957Z,5.00
2022-11-30T00:11:30.726Z,6.25
2022-11-30T00:13:59.143Z,5.75
2022-11-30T00:16:28.448Z,6.25
2022-11-30T00:18:56.877Z,5.00
2022-11-30T00:21:25.201Z,5.00
2022-11-30T00:23:53.551Z,5.25
2022-11-30T00:26:23.790Z,5.50
2022-11-30T00:28:52.266Z,4.25
2022-11-30T00:31:21.967Z,4.50
2022-11-30T00:33:50.457Z,5.00
2022-11-30T00:36:21.383Z,5.25
2022-11-30T00:38:51.191Z,6.00
2022-11-30T00:41:20.971Z,6.25
2022-11-30T00:43:49.905Z,8.75
2022-11-30T00:46:18.647Z,7.25
2022-11-30T00:48:47.261Z,7.50
2022-11-30T00:51:16.136Z,8.00
2022-11-30T00:53:44.589Z,7.75
2022-11-30T00:56:12.983Z,7.50
2022-11-30T00:58:41.870Z,9.00
2022-11-30T01:01:10.675Z,9.00
2022-11-30T01:03:39.387Z,5.75
2022-11-30T01:06:10.527Z,6.75
2022-11-30T01:08:39.023Z,8.00
2022-11-30T01:11:10.584Z,6.50
2022-11-30T01:13:39.137Z,7.25
2022-11-30T01:16:13.450Z,8.00
2022-11-30T01:18:41.923Z,7.00
2022-11-30T01:21:12.537Z,6.50
2022-11-30T01:23:41.780Z,7.00
2022-11-30T01:26:10.314Z,8.00
2022-11-30T01:28:38.788Z,6.00
2022-11-30T01:31:10.400Z,7.00
2022-11-30T01:33:38.843Z,7.75
2022-11-30T01:36:09.007Z,8.75
2022-11-30T01:38:43.798Z,6.25
2022-11-30T01:41:15.240Z,7.50
2022-11-30T01:43:48.162Z,7.00
2022-11-30T01:46:41.898Z,8.00
2022-11-30T01:49:19.073Z,9.00
2022-11-30T01:52:00.820Z,9.00
2022-11-30T01:54:37.209Z,7.50
2022-11-30T01:57:15.989Z,8.50
2022-11-30T01:59:44.533Z,9.00
2022-11-30T02:02:12.934Z,9.00
2022-11-30T02:04:41.520Z,8.25
2022-11-30T02:07:10.732Z,8.00
2022-11-30T02:09:46.046Z,8.25
2022-11-30T02:12:37.487Z,8.75
2022-11-30T02:15:12.808Z,8.75
2022-11-30T02:17:53.477Z,7.25
2022-11-30T02:21:03.250Z,6.50
2022-11-30T02:24:05.030Z,6.25
2022-11-30T02:26:54.456Z,7.50
2022-11-30T02:29:35.477Z,7.75
2022-11-30T02:32:13.908Z,8.00
2022-11-30T02:34:44.968Z,5.00
2022-11-30T02:37:17.121Z,6.50
2022-11-30T02:39:45.603Z,5.75
2022-11-30T02:42:15.578Z,5.75
2022-11-30T02:44:48.474Z,7.00
2022-11-30T02:47:29.285Z,6.50
2022-11-30T02:50:01.780Z,7.75
2022-11-30T02:52:33.192Z,8.00
2022-11-30T02:55:10.800Z,6.25
2022-11-30T02:57:39.225Z,5.75
2022-11-30T03:00:11.747Z,6.25
2022-11-30T03:02:40.813Z,5.25
2022-11-30T03:05:10.144Z,5.25
2022-11-30T03:07:39.318Z,5.25
2022-11-30T03:10:08.682Z,5.75
2022-11-30T03:12:37.204Z,6.00
2022-11-30T03:15:06.840Z,5.25
2022-11-30T03:17:35.201Z,6.25
2022-11-30T03:20:03.647Z,4.50
2022-11-30T03:22:32.024Z,4.00
2022-11-30T03:25:00.434Z,4.25
2022-11-30T03:27:28.801Z,4.00
2022-11-30T03:29:57.194Z,3.75
2022-11-30T03:32:25.576Z,3.25
2022-11-30T03:34:53.940Z,4.50
2022-11-30T03:37:22.266Z,3.50
2022-11-30T03:39:53.622Z,4.25
2022-11-30T03:42:26.200Z,3.50
2022-11-30T03:44:54.535Z,3.75
2022-11-30T03:47:22.858Z,4.25
2022-11-30T03:49:51.161Z,4.00
2022-11-30T03:52:19.557Z,2.75
2022-11-30T03:54:48.096Z,3.25
2022-11-30T03:57:16.615Z,4.00
2022-11-30T03:59:44.948Z,5.00
2022-11-30T04:02:13.331Z,3.00
2022-11-30T04:04:41.686Z,2.75
2022-11-30T04:07:10.013Z,4.00
2022-11-30T04:09:38.357Z,4.00
2022-11-30T04:12:06.928Z,4.50
2022-11-30T04:14:35.262Z,3.75
2022-11-30T04:17:03.679Z,7.00
2022-11-30T04:19:32.050Z,4.00
2022-11-30T04:22:00.423Z,6.00
2022-11-30T04:24:28.742Z,5.50
2022-11-30T04:26:57.052Z,4.00
2022-11-30T04:29:25.418Z,3.75
2022-11-30T04:31:53.745Z,3.00
2022-11-30T04:34:22.054Z,4.00
2022-11-30T04:36:50.389Z,3.50
2022-11-30T04:39:18.726Z,4.50
2022-11-30T04:41:47.057Z,4.50
2022-11-30T04:44:15.401Z,4.00
2022-11-30T04:46:43.785Z,4.00
2022-11-30T04:49:12.203Z,3.50
2022-11-30T04:51:40.501Z,4.00
2022-11-30T04:54:08.876Z,4.25
2022-11-30T04:56:37.699Z,3.00
2022-11-30T04:59:06.036Z,3.50
2022-11-30T05:01:34.432Z,3.25
2022-11-30T05:04:02.864Z,4.75
2022-11-30T05:06:31.257Z,4.25
2022-11-30T05:08:59.650Z,5.00
2022-11-30T05:11:28.067Z,4.00
2022-11-30T05:13:56.419Z,4.25
2022-11-30T05:16:24.800Z,3.50
2022-11-30T05:18:53.176Z,3.00
2022-11-30T05:21:21.531Z,4.00
2022-11-30T05:23:49.855Z,4.75
2022-11-30T05:26:18.331Z,4.00
2022-11-30T05:28:46.665Z,3.50
2022-11-30T05:31:15.026Z,5.00
2022-11-30T05:33:43.371Z,4.00
2022-11-30T05:36:11.765Z,5.25
2022-11-30T05:38:40.128Z,3.25
2022-11-30T05:41:08.433Z,3.50
2022-11-30T05:43:36.771Z,1.50
2022-11-30T05:46:06.830Z,3.25
2022-11-30T05:48:35.276Z,4.75
2022-11-30T05:51:12.997Z,3.00
2022-11-30T05:53:41.348Z,3.50
2022-11-30T05:56:13.810Z,2.75
2022-11-30T05:58:42.764Z,2.50
2022-11-30T06:01:22.572Z,3.50
2022-11-30T06:03:51.377Z,3.75
2022-11-30T06:06:20.029Z,4.00
2022-11-30T06:08:49.909Z,2.50
2022-11-30T06:11:19.337Z,5.25
2022-11-30T06:13:47.640Z,3.25
2022-11-30T06:16:15.991Z,4.00
2022-11-30T06:18:44.440Z,4.50
2022-11-30T06:21:13.342Z,3.50
2022-11-30T06:23:41.668Z,4.00
2022-11-30T06:26:12.864Z,3.50
2022-11-30T06:28:46.573Z,3.50
2022-11-30T06:31:16.779Z,3.50
2022-11-30T06:33:45.239Z,4.00
2022-11-30T06:36:13.632Z,3.00
2022-11-30T06:38:41.955Z,3.75
2022-11-30T06:41:13.417Z,3.00
2022-11-30T06:43:42.193Z,3.00
2022-11-30T06:46:10.818Z,3.00
2022-11-30T06:48:39.455Z,3.25
2022-11-30T06:51:09.535Z,3.50
2022-11-30T06:53:38.676Z,3.00
2022-11-30T06:56:10.749Z,3.50
2022-11-30T06:58:40.737Z,3.00
2022-11-30T07:01:12.197Z,3.75
2022-11-30T07:03:44.072Z,3.00
2022-11-30T07:06:14.525Z,4.00
2022-11-30T07:08:44.646Z,2.25
2022-11-30T07:11:14.141Z,1.75
2022-11-30T07:13:42.470Z,2.00
2022-11-30T07:16:12.841Z,3.00
2022-11-30T07:18:41.363Z,2.50
2022-11-30T07:21:11.435Z,4.00
2022-11-30T07:23:58.137Z,2.50
2022-11-30T07:26:27.541Z,2.75
2022-11-30T07:28:59.158Z,4.25
2022-11-30T07:31:32.631Z,2.50
2022-11-30T07:34:08.774Z,3.25
2022-11-30T07:36:38.576Z,3.00
2022-11-30T07:39:07.146Z,2.00
2022-11-30T07:41:35.757Z,2.50
2022-11-30T07:44:06.869Z,1.50
2022-11-30T07:46:37.093Z,2.25
2022-11-30T07:49:10.121Z,1.50
2022-11-30T07:51:39.488Z,1.75
2022-11-30T07:54:08.110Z,2.00
2022-11-30T07:56:36.563Z,2.00
2022-11-30T07:59:05.246Z,2.00
2022-11-30T08:01:35.196Z,2.25
2022-11-30T08:04:03.716Z,1.25
2022-11-30T08:06:33.260Z,2.25
2022-11-30T08:09:04.283Z,2.00
2022-11-30T08:11:35.899Z,3.00
2022-11-30T08:14:05.268Z,1.75
2022-11-30T08:16:39.529Z,2.25
2022-11-30T08:19:08.057Z,2.50
2022-11-30T08:21:36.566Z,3.25
2022-11-30T08:24:05.472Z,2.75
2022-11-30T08:26:35.362Z,2.75
2022-11-30T08:29:03.897Z,2.75
2022-11-30T08:31:37.676Z,2.25
2022-11-30T08:34:12.060Z,2.00
2022-11-30T08:36:43.395Z,1.75
2022-11-30T08:39:14.353Z,1.50
2022-11-30T08:41:42.828Z,2.00
2022-11-30T08:44:11.307Z,2.00
2022-11-30T08:46:55.114Z,2.75
2022-11-30T08:49:25.362Z,2.25
2022-11-30T08:54:47.287Z,3.25
2022-11-30T08:57:18.653Z,2.00
2022-11-30T08:59:47.824Z,2.00
2022-11-30T09:02:18.997Z,3.00
2022-11-30T09:04:50.064Z,2.00
2022-11-30T09:07:19.132Z,3.00
2022-11-30T09:09:47.686Z,1.00
2022-11-30T09:12:16.202Z,2.50
2022-11-30T09:14:49.643Z,2.00
2022-11-30T09:17:21.053Z,2.00
2022-11-30T09:19:49.518Z,2.00
2022-11-30T09:22:19.022Z,2.25
2022-11-30T09:24:47.682Z,2.50
2022-11-30T09:27:16.210Z,1.75
2022-11-30T09:29:44.929Z,1.75
2022-11-30T09:32:13.486Z,1.25
2022-11-30T09:34:41.917Z,1.75
2022-11-30T09:37:10.509Z,1.00
2022-11-30T09:39:38.949Z,0.50
2022-11-30T09:42:07.457Z,1.00
2022-11-30T09:44:45.628Z,3.25
2022-11-30T09:47:36.617Z,3.00
2022-11-30T09:50:13.665Z,2.50
2022-11-30T09:52:49.886Z,1.00
2022-11-30T09:55:37.191Z,2.50
2022-11-30T09:58:07.864Z,2.00
2022-11-30T10:00:37.976Z,1.00
2022-11-30T10:03:08.017Z,1.00
2022-11-30T10:05:58.842Z,2.00
2022-11-30T10:08:51.475Z,2.25
2022-11-30T10:11:41.279Z,2.00
2022-11-30T10:14:38.876Z,2.00
2022-11-30T10:17:27.325Z,3.00
2022-11-30T10:20:05.377Z,8.25
2022-11-30T10:23:10.473Z,2.25
2022-11-30T10:26:10.732Z,5.50
2022-11-30T10:28:55.537Z,4.50
2022-11-30T10:31:38.940Z,4.75
2022-11-30T10:34:37.513Z,10.00
2022-11-30T10:37:21.320Z,9.25
2022-11-30T10:40:01.740Z,9.50
2022-11-30T10:42:56.908Z,12.50
2022-11-30T10:45:28.039Z,12.00
2022-11-30T10:48:16.862Z,9.75
2022-11-30T10:50:45.456Z,8.50
2022-11-30T10:53:14.681Z,7.25
2022-11-30T10:56:00.197Z,5.00
2022-11-30T10:58:57.774Z,3.50
2022-11-30T11:01:37.015Z,4.25
2022-11-30T11:04:13.979Z,4.25
2022-11-30T11:06:58.242Z,3.25
2022-11-30T11:09:51.470Z,4.75
2022-11-30T11:12:26.973Z,3.00
2022-11-30T11:15:21.943Z,4.25
2022-11-30T11:17:50.965Z,3.25
2022-11-30T11:20:44.505Z,3.50
2022-11-30T11:23:38.778Z,3.50
2022-11-30T11:26:22.830Z,4.50
2022-11-30T11:28:53.858Z,3.00
2022-11-30T11:31:45.218Z,2.50
2022-11-30T11:34:27.456Z,3.50
2022-11-30T11:37:17.379Z,3.75
2022-11-30T11:40:17.056Z,3.75
2022-11-30T11:43:05.409Z,2.50
2022-11-30T11:45:39.982Z,2.00
2022-11-30T11:48:29.185Z,4.00
2022-11-30T11:51:07.196Z,3.25
2022-11-30T11:53:53.971Z,4.75
2022-11-30T11:56:27.014Z,3.25
2022-11-30T11:59:32.494Z,3.75
2022-11-30T12:02:24.255Z,3.25
2022-11-30T12:04:58.717Z,3.50
2022-11-30T12:07:51.624Z,5.50
2022-11-30T12:10:53.677Z,4.25
2022-11-30T12:13:26.856Z,4.25
2022-11-30T12:16:16.329Z,3.50
2022-11-30T12:19:01.327Z,5.50
2022-11-30T12:22:05.004Z,5.00
2022-11-30T12:25:12.506Z,6.25
2022-11-30T12:27:54.058Z,6.75
2022-11-30T12:30:31.312Z,5.25
2022-11-30T12:33:30.372Z,7.00
2022-11-30T12:36:21.835Z,7.00
2022-11-30T12:38:58.373Z,7.75
2022-11-30T12:41:41.834Z,7.00
2022-11-30T12:44:41.782Z,5.75
2022-11-30T12:47:26.778Z,7.75
2022-11-30T12:50:09.468Z,7.25
2022-11-30T12:53:28.025Z,6.75
2022-11-30T12:56:25.559Z,6.00
2022-11-30T12:59:18.920Z,6.50
2022-11-30T13:01:58.645Z,5.25
2022-11-30T13:04:34.348Z,6.50
2022-11-30T13:07:14.086Z,6.75
2022-11-30T13:10:12.035Z,5.50
2022-11-30T13:12:47.274Z,6.50
2022-11-30T13:15:21.825Z,6.00
2022-11-30T13:17:51.970Z,6.00
2022-11-30T13:20:40.935Z,5.25
2022-11-30T13:23:18.805Z,7.50
2022-11-30T13:26:09.273Z,7.75
2022-11-30T13:28:37.947Z,7.00
2022-11-30T13:31:24.802Z,5.50
2022-11-30T13:33:55.964Z,7.75
2022-11-30T13:36:37.722Z,7.25
2022-11-30T13:39:28.794Z,7.25
2022-11-30T13:42:03.598Z,5.75
2022-11-30T13:44:33.700Z,7.00
2022-11-30T13:47:05.291Z,6.50
2022-11-30T13:49:38.290Z,5.50
2022-11-30T13:52:22.496Z,6.25
2022-11-30T13:54:58.380Z,7.00
2022-11-30T13:57:26.872Z,6.00
2022-11-30T13:59:57.726Z,6.25
2022-11-30T14:02:43.055Z,6.25
2022-11-30T14:05:20.506Z,7.50
2022-11-30T14:08:11.143Z,6.50
2022-11-30T14:10:44.155Z,7.25
2022-11-30T14:13:12.702Z,6.00
2022-11-30T14:15:41.933Z,6.25
2022-11-30T14:18:10.358Z,5.25
2022-11-30T14:20:47.600Z,6.50
2022-11-30T14:23:54.311Z,7.00
2022-11-30T14:26:49.340Z,6.25
2022-11-30T14:29:20.692Z,6.00
2022-11-30T14:32:27.933Z,6.25
2022-11-30T14:35:06.777Z,7.00
2022-11-30T14:37:44.434Z,7.50
2022-11-30T14:40:22.623Z,7.25
2022-11-30T14:42:58.306Z,6.25
2022-11-30T14:45:29.777Z,6.75
2022-11-30T14:48:12.804Z,8.00
2022-11-30T14:51:04.226Z,8.00
2022-11-30T14:53:56.534Z,8.00
2022-11-30T14:56:39.769Z,6.25
2022-11-30T14:59:17.535Z,6.00
2022-11-30T15:01:46.555Z,6.50
2022-11-30T15:04:18.369Z,7.00
2022-11-30T15:06:47.047Z,8.00
2022-11-30T15:09:20.340Z,6.25
2022-11-30T15:11:51.629Z,9.50
2022-11-30T15:14:20.262Z,11.75
2022-11-30T15:16:56.381Z,7.25
2022-11-30T15:19:33.601Z,7.50
2022-11-30T15:22:02.776Z,8.75
2022-11-30T15:24:31.742Z,9.50
2022-11-30T15:27:10.927Z,8.25
2022-11-30T15:29:45.787Z,8.50
2022-11-30T15:32:21.418Z,11.25
2022-11-30T15:34:56.506Z,9.75
2022-11-30T15:37:33.822Z,8.50
2022-11-30T15:40:06.690Z,7.50
2022-11-30T15:42:44.959Z,9.00
2022-11-30T15:45:18.829Z,8.50
2022-11-30T15:47:47.443Z,9.00
2022-11-30T15:50:36.120Z,8.75
2022-11-30T15:53:28.499Z,9.25
2022-11-30T15:56:09.166Z,9.00
2022-11-30T15:58:46.549Z,9.75
2022-11-30T16:01:23.235Z,8.75
2022-11-30T16:04:00.165Z,7.75
2022-11-30T16:06:33.319Z,7.25
2022-11-30T16:09:07.440Z,7.50
2022-11-30T16:11:37.041Z,7.00
2022-11-30T16:14:05.886Z,7.25
2022-11-30T16:16:34.834Z,7.75
2022-11-30T16:19:03.364Z,7.75
2022-11-30T16:21:31.897Z,9.75
2022-11-30T16:24:00.411Z,9.00
2022-11-30T16:26:49.893Z,8.25
2022-11-30T16:29:17.899Z,8.50
2022-11-30T16:31:46.547Z,9.00
2022-11-30T16:34:15.236Z,8.25
2022-11-30T16:36:43.792Z,8.50
2022-11-30T16:39:14.442Z,8.75
2022-11-30T16:41:44.306Z,9.25
2022-11-30T16:44:16.069Z,10.00
2022-11-30T16:46:44.474Z,8.25
2022-11-30T16:49:12.848Z,8.25
2022-11-30T16:51:42.730Z,7.50
2022-11-30T16:54:14.897Z,8.00
2022-11-30T16:56:44.434Z,7.50
2022-11-30T16:59:16.627Z,7.25
2022-11-30T17:01:48.251Z,6.75
2022-11-30T17:04:21.444Z,5.75
2022-11-30T17:06:54.687Z,6.00
2022-11-30T17:09:24.336Z,5.00
2022-11-30T17:11:53.065Z,6.00
2022-11-30T17:14:22.957Z,4.00
2022-11-30T17:16:51.409Z,4.25
2022-11-30T17:19:20.215Z,5.50
2022-11-30T17:21:49.359Z,5.25
2022-11-30T17:24:17.730Z,4.00
2022-11-30T17:26:46.154Z,5.00
2022-11-30T17:29:14.470Z,4.00
2022-11-30T17:31:42.882Z,4.50
2022-11-30T17:34:11.277Z,4.50
2022-11-30T17:36:39.614Z,5.25
2022-11-30T17:39:08.987Z,5.00
2022-11-30T17:41:37.846Z,4.25
2022-11-30T17:44:06.232Z,4.00
2022-11-30T17:46:34.566Z,3.00
2022-11-30T17:49:02.879Z,4.00
2022-11-30T17:51:31.716Z,2.75
2022-11-30T17:54:00.197Z,3.75
2022-11-30T17:56:28.613Z,3.75
2022-11-30T17:58:56.986Z,4.25
2022-11-30T18:01:27.993Z,4.00
2022-11-30T18:03:57.413Z,2.50
2022-11-30T18:06:26.218Z,4.50
2022-11-30T18:08:54.801Z,2.00
2022-11-30T18:11:26.488Z,2.25
2022-11-30T18:13:57.805Z,2.75
2022-11-30T18:16:32.204Z,2.50
2022-11-30T18:19:01.260Z,3.00
2022-11-30T18:21:30.832Z,2.50
2022-11-30T18:23:59.886Z,3.25
2022-11-30T18:26:28.485Z,2.00
2022-11-30T18:28:59.752Z,3.00
2022-11-30T18:31:29.461Z,3.00
2022-11-30T18:34:03.161Z,2.00
2022-11-30T18:36:32.262Z,3.00
2022-11-30T18:39:00.667Z,2.75
2022-11-30T18:41:31.200Z,2.00
2022-11-30T18:43:59.805Z,2.25
2022-11-30T18:46:28.408Z,2.75
2022-11-30T18:48:57.430Z,3.25
2022-11-30T18:51:28.324Z,2.00
2022-11-30T18:53:59.422Z,2.00
2022-11-30T18:56:30.147Z,3.75
2022-11-30T18:59:04.793Z,2.75
2022-11-30T19:01:34.113Z,3.25
2022-11-30T19:04:11.343Z,3.00
2022-11-30T19:06:41.615Z,3.00
2022-11-30T19:09:15.572Z,2.75
2022-11-30T19:11:44.540Z,4.00
2022-11-30T19:14:17.687Z,1.25
2022-11-30T19:16:48.112Z,3.00
2022-11-30T19:19:16.929Z,1.75
2022-11-30T19:21:48.600Z,2.50
2022-11-30T19:24:17.555Z,3.75
2022-11-30T19:26:45.908Z,2.00
2022-11-30T19:29:14.371Z,3.25
2022-11-30T19:31:42.747Z,2.50
2022-11-30T19:34:13.354Z,2.50
2022-11-30T19:36:42.537Z,2.50
2022-11-30T19:39:11.876Z,1.75
2022-11-30T19:41:40.561Z,4.00
2022-11-30T19:44:13.720Z,2.75
2022-11-30T19:46:42.839Z,2.00
2022-11-30T19:49:12.199Z,3.00
2022-11-30T19:51:40.593Z,3.00
2022-11-30T19:54:09.039Z,3.50
2022-11-30T19:56:39.892Z,2.50
2022-11-30T19:59:08.216Z,2.50
2022-11-30T20:01:36.985Z,2.50
2022-11-30T20:04:06.221Z,4.00
2022-11-30T20:06:37.185Z,3.00
2022-11-30T20:09:07.428Z,4.00
2022-11-30T20:11:36.297Z,2.25
2022-11-30T20:14:05.268Z,2.00
2022-11-30T20:16:33.694Z,3.00
2022-11-30T20:19:03.425Z,3.00
2022-11-30T20:21:37.055Z,3.50
2022-11-30T20:24:09.007Z,2.50
2022-11-30T20:26:40.967Z,3.00
2022-11-30T20:29:13.372Z,1.00
2022-11-30T20:31:42.224Z,1.25
2022-11-30T20:34:11.307Z,4.00
2022-11-30T20:36:39.651Z,2.50
2022-11-30T20:39:08.427Z,2.75
2022-11-30T20:41:36.951Z,3.50
2022-11-30T20:44:05.463Z,2.50
2022-11-30T20:46:36.417Z,3.00
2022-11-30T20:49:13.646Z,2.25
2022-11-30T20:51:42.142Z,2.00
2022-11-30T20:54:12.146Z,2.00
2022-11-30T20:56:41.206Z,3.75
2022-11-30T20:59:18.017Z,2.00
2022-11-30T21:01:47.801Z,1.75
2022-11-30T21:04:16.155Z,3.00
2022-11-30T21:06:46.338Z,1.00
2022-11-30T21:09:15.791Z,3.00
2022-11-30T21:11:45.086Z,3.00
2022-11-30T21:14:13.751Z,5.25
2022-11-30T21:16:42.514Z,4.75
2022-11-30T21:19:11.697Z,3.25
2022-11-30T21:21:40.069Z,3.00
2022-11-30T21:24:10.139Z,2.00
2022-11-30T21:26:41.257Z,2.00
2022-11-30T21:29:13.929Z,3.00
2022-11-30T21:31:43.025Z,2.75
2022-11-30T21:34:11.855Z,1.50
2022-11-30T21:36:40.494Z,1.75
2022-11-30T21:39:10.412Z,3.00
2022-11-30T21:41:40.598Z,1.25
2022-11-30T21:44:13.629Z,2.25
2022-11-30T21:46:42.533Z,2.25
2022-11-30T21:49:10.927Z,2.75
2022-11-30T21:51:39.069Z,3.25
2022-11-30T21:54:09.734Z,3.25
2022-11-30T21:56:40.470Z,2.50
2022-11-30T21:59:10.669Z,2.50
2022-11-30T22:01:41.639Z,2.00
2022-11-30T22:04:12.587Z,3.00
2022-11-30T22:06:42.531Z,2.00
2022-11-30T22:09:16.929Z,2.25
2022-11-30T22:11:46.793Z,2.00
2022-11-30T22:14:17.605Z,4.00
2022-11-30T22:16:46.676Z,2.25
2022-11-30T22:19:15.213Z,3.00
2022-11-30T22:21:49.500Z,3.25
2022-11-30T22:24:18.578Z,2.50
2022-11-30T22:26:47.533Z,3.00
2022-11-30T22:29:17.537Z,3.00
2022-11-30T22:31:48.179Z,2.00
2022-11-30T22:34:16.881Z,3.00
2022-11-30T22:36:46.421Z,2.75
2022-11-30T22:39:20.065Z,3.00
2022-11-30T22:41:55.188Z,2.00
2022-11-30T22:44:25.472Z,2.75
2022-11-30T22:46:53.938Z,1.00
2022-11-30T22:49:22.538Z,2.50
2022-11-30T22:51:51.435Z,1.50
2022-11-30T22:54:20.227Z,2.00
2022-11-30T22:56:48.639Z,4.00
2022-11-30T22:59:17.639Z,3.25
2022-11-30T23:01:51.234Z,4.00
2022-11-30T23:04:21.825Z,3.00
2022-11-30T23:06:50.703Z,2.00
2022-11-30T23:09:22.446Z,3.00
2022-11-30T23:11:52.147Z,4.00
2022-11-30T23:14:20.576Z,2.00
2022-11-30T23:16:49.045Z,3.50
2022-11-30T23:19:19.069Z,3.50
2022-11-30T23:21:47.507Z,3.00
2022-11-30T23:24:21.462Z,3.50
2022-11-30T23:26:50.178Z,3.50
2022-11-30T23:29:19.763Z,3.00
2022-11-30T23:31:48.862Z,2.75
2022-11-30T23:34:20.792Z,4.25
2022-11-30T23:36:50.286Z,3.75
2022-11-30T23:39:20.264Z,4.00
2022-11-30T23:41:49.549Z,3.75
2022-11-30T23:44:17.953Z,2.00
2022-11-30T23:46:46.445Z,4.00
2022-11-30T23:49:15.240Z,4.00
2022-11-30T23:51:44.342Z,4.00
2022-11-30T23:54:12.717Z,4.50
2022-11-30T23:56:41.151Z,4.00
2022-11-30T23:59:09.566Z,5.25
